ANA748 RJNW-RJTT
Flight info
| Callsign | ANA748 |
|---|---|
| Flight time | 1h 10m |
| Altitude | 31000 |
| Route | HISUI Y31 GUSGI/N0461F300 Y10 GODIN |
| Aircraft | A21N/M-SDE3FGHIRWY/LB1 |
Departure
| Time | 2026-05-06 12:04 |
|---|---|
| Airport | Noto Satoyama Airport (RJNW) |
Arrival
| Time | 2026-05-06 13:14 |
|---|---|
| Airport | Tokyo Haneda International Airport (RJTT) |
| Time | Latitude | Longitude | Altitude | Speed | Heading |
|---|---|---|---|---|---|
| 2026-05-06 11:50 | 37.29469 | 136.95767 | 725 ft | 0 kts | 337° |
| 2026-05-06 11:55 | 37.29460 | 136.95772 | 725 ft | 2 kts | 334° |
| 2026-05-06 11:55 | 37.29447 | 136.95779 | 725 ft | 2 kts | 339° |
| 2026-05-06 11:55 | 37.29432 | 136.95781 | 725 ft | 2 kts | 19° |
| 2026-05-06 11:56 | 37.29419 | 136.95770 | 725 ft | 2 kts | 52° |
| 2026-05-06 11:56 | 37.29413 | 136.95754 | 725 ft | 2 kts | 71° |
| 2026-05-06 11:56 | 37.29407 | 136.95737 | 725 ft | 2 kts | 64° |
| 2026-05-06 11:56 | 37.29401 | 136.95720 | 725 ft | 0 kts | 66° |
| 2026-05-06 11:57 | 37.29396 | 136.95706 | 725 ft | 0 kts | 64° |
| 2026-05-06 11:57 | 37.29395 | 136.95702 | 725 ft | 0 kts | 65° |
| 2026-05-06 11:58 | 37.29395 | 136.95703 | 725 ft | 0 kts | 65° |
| 2026-05-06 11:59 | 37.29402 | 136.95723 | 725 ft | 5 kts | 65° |
| 2026-05-06 11:59 | 37.29388 | 136.95784 | 725 ft | 9 kts | 147° |
| 2026-05-06 11:59 | 37.29301 | 136.95834 | 725 ft | 11 kts | 156° |
| 2026-05-06 11:59 | 37.29253 | 136.95860 | 725 ft | 11 kts | 156° |
| 2026-05-06 12:00 | 37.29190 | 136.95825 | 725 ft | 11 kts | 243° |
| 2026-05-06 12:00 | 37.29156 | 136.95728 | 725 ft | 13 kts | 247° |
| 2026-05-06 12:00 | 37.29109 | 136.95589 | 725 ft | 21 kts | 246° |
| 2026-05-06 12:00 | 37.29046 | 136.95403 | 725 ft | 22 kts | 247° |
| 2026-05-06 12:01 | 37.29015 | 136.95268 | 725 ft | 8 kts | 277° |
| 2026-05-06 12:01 | 37.29004 | 136.95203 | 725 ft | 6 kts | 214° |
| 2026-05-06 12:01 | 37.28986 | 136.95209 | 725 ft | 3 kts | 113° |
| 2026-05-06 12:01 | 37.28990 | 136.95239 | 725 ft | 0 kts | 66° |
| 2026-05-06 12:03 | 37.29084 | 136.95515 | 725 ft | 74 kts | 67° |
| 2026-05-06 12:03 | 37.29385 | 136.96400 | 725 ft | 141 kts | 66° |
| 2026-05-06 12:03 | 37.29813 | 136.97659 | 1089 ft | 161 kts | 67° |
| 2026-05-06 12:04 | 37.30100 | 136.98520 | 1504 ft | 163 kts | 68° |
| 2026-05-06 12:04 | 37.30534 | 136.99847 | 2152 ft | 168 kts | 68° |
| 2026-05-06 12:04 | 37.30974 | 137.01266 | 2673 ft | 183 kts | 65° |
| 2026-05-06 12:04 | 37.31457 | 137.02820 | 3148 ft | 200 kts | 65° |
| 2026-05-06 12:05 | 37.31985 | 137.04492 | 3526 ft | 218 kts | 66° |
| 2026-05-06 12:05 | 37.32570 | 137.06335 | 3894 ft | 238 kts | 68° |
| 2026-05-06 12:05 | 37.33434 | 137.09084 | 4436 ft | 267 kts | 69° |
| 2026-05-06 12:05 | 37.33896 | 137.10565 | 4789 ft | 278 kts | 70° |
| 2026-05-06 12:06 | 37.34838 | 137.13612 | 5820 ft | 286 kts | 71° |
| 2026-05-06 12:06 | 37.35559 | 137.15951 | 6641 ft | 290 kts | 71° |
| 2026-05-06 12:06 | 37.36277 | 137.18272 | 7685 ft | 282 kts | 71° |
| 2026-05-06 12:06 | 37.36972 | 137.20508 | 8770 ft | 272 kts | 71° |
| 2026-05-06 12:07 | 37.37424 | 137.21960 | 9330 ft | 271 kts | 71° |
| 2026-05-06 12:07 | 37.38341 | 137.24934 | 10258 ft | 276 kts | 70° |
| 2026-05-06 12:07 | 37.38804 | 137.26436 | 10712 ft | 278 kts | 70° |
| 2026-05-06 12:07 | 37.39501 | 137.28696 | 11387 ft | 280 kts | 70° |
| 2026-05-06 12:08 | 37.40203 | 137.30969 | 12048 ft | 283 kts | 69° |
| 2026-05-06 12:08 | 37.40919 | 137.33284 | 12697 ft | 286 kts | 69° |
| 2026-05-06 12:08 | 37.41645 | 137.35632 | 13334 ft | 289 kts | 69° |
| 2026-05-06 12:08 | 37.42372 | 137.37985 | 13937 ft | 293 kts | 69° |
| 2026-05-06 12:09 | 37.43121 | 137.40420 | 14296 ft | 307 kts | 69° |
| 2026-05-06 12:09 | 37.44179 | 137.43867 | 14678 ft | 328 kts | 69° |
| 2026-05-06 12:09 | 37.44734 | 137.45673 | 14865 ft | 338 kts | 68° |
| 2026-05-06 12:09 | 37.45602 | 137.48500 | 15138 ft | 353 kts | 68° |
| 2026-05-06 12:10 | 37.46497 | 137.51417 | 15399 ft | 368 kts | 68° |
| 2026-05-06 12:10 | 37.47436 | 137.54483 | 15654 ft | 382 kts | 68° |
| 2026-05-06 12:10 | 37.48405 | 137.57643 | 15900 ft | 396 kts | 68° |
| 2026-05-06 12:10 | 37.49403 | 137.60908 | 16313 ft | 403 kts | 68° |
| 2026-05-06 12:11 | 37.50401 | 137.64174 | 16870 ft | 406 kts | 68° |
| 2026-05-06 12:11 | 37.51405 | 137.67464 | 17401 ft | 409 kts | 69° |
| 2026-05-06 12:11 | 37.52422 | 137.70801 | 17910 ft | 412 kts | 68° |
| 2026-05-06 12:11 | 37.53458 | 137.74203 | 18406 ft | 415 kts | 68° |
| 2026-05-06 12:12 | 37.54485 | 137.77579 | 18881 ft | 419 kts | 68° |
| 2026-05-06 12:12 | 37.55535 | 137.81035 | 19349 ft | 422 kts | 68° |
| 2026-05-06 12:12 | 37.56577 | 137.84468 | 19797 ft | 425 kts | 68° |
| 2026-05-06 12:12 | 37.57610 | 137.87878 | 20227 ft | 428 kts | 68° |
| 2026-05-06 12:13 | 37.58463 | 137.91476 | 20640 ft | 433 kts | 80° |
| 2026-05-06 12:13 | 37.58600 | 137.95230 | 21049 ft | 435 kts | 96° |
| 2026-05-06 12:13 | 37.57960 | 137.98932 | 21477 ft | 436 kts | 108° |
| 2026-05-06 12:13 | 37.57016 | 138.02551 | 21882 ft | 438 kts | 111° |
| 2026-05-06 12:14 | 37.56021 | 138.06158 | 22237 ft | 442 kts | 111° |
| 2026-05-06 12:14 | 37.55009 | 138.09847 | 22612 ft | 445 kts | 110° |
| 2026-05-06 12:14 | 37.54023 | 138.13510 | 22980 ft | 448 kts | 110° |
| 2026-05-06 12:14 | 37.53023 | 138.17274 | 23335 ft | 452 kts | 110° |
| 2026-05-06 12:15 | 37.52048 | 138.20976 | 23679 ft | 455 kts | 110° |
| 2026-05-06 12:15 | 37.51059 | 138.24748 | 24011 ft | 458 kts | 110° |
| 2026-05-06 12:15 | 37.50067 | 138.28538 | 24339 ft | 461 kts | 110° |
| 2026-05-06 12:15 | 37.49059 | 138.32388 | 24650 ft | 464 kts | 110° |
| 2026-05-06 12:16 | 37.48047 | 138.36250 | 24945 ft | 468 kts | 110° |
| 2026-05-06 12:16 | 37.47021 | 138.40140 | 25278 ft | 470 kts | 110° |
| 2026-05-06 12:16 | 37.46001 | 138.44023 | 25666 ft | 471 kts | 110° |
| 2026-05-06 12:16 | 37.44981 | 138.47914 | 26107 ft | 470 kts | 110° |
| 2026-05-06 12:17 | 37.43958 | 138.51804 | 26436 ft | 472 kts | 110° |
| 2026-05-06 12:17 | 37.42931 | 138.55696 | 26699 ft | 475 kts | 110° |
| 2026-05-06 12:17 | 37.41892 | 138.59624 | 26963 ft | 479 kts | 111° |
| 2026-05-06 12:17 | 37.40860 | 138.63519 | 27224 ft | 481 kts | 111° |
| 2026-05-06 12:18 | 37.39814 | 138.67461 | 27474 ft | 484 kts | 112° |
| 2026-05-06 12:18 | 37.38778 | 138.71355 | 27721 ft | 487 kts | 112° |
| 2026-05-06 12:18 | 37.37751 | 138.75207 | 27959 ft | 489 kts | 112° |
| 2026-05-06 12:18 | 37.36675 | 138.79262 | 28203 ft | 492 kts | 112° |
| 2026-05-06 12:19 | 37.35598 | 138.83319 | 28435 ft | 495 kts | 112° |
| 2026-05-06 12:19 | 37.34504 | 138.87440 | 28671 ft | 498 kts | 112° |
| 2026-05-06 12:19 | 37.33410 | 138.91559 | 28904 ft | 501 kts | 113° |
| 2026-05-06 12:19 | 37.32300 | 138.95729 | 29174 ft | 502 kts | 113° |
| 2026-05-06 12:20 | 37.31202 | 138.99858 | 29503 ft | 502 kts | 113° |
| 2026-05-06 12:20 | 37.30096 | 139.04001 | 29783 ft | 504 kts | 114° |
| 2026-05-06 12:20 | 37.28968 | 139.08215 | 30012 ft | 507 kts | 114° |
| 2026-05-06 12:20 | 37.27850 | 139.12386 | 30251 ft | 509 kts | 114° |
| 2026-05-06 12:21 | 37.26721 | 139.16592 | 30503 ft | 511 kts | 114° |
| 2026-05-06 12:21 | 37.25214 | 139.22198 | 30825 ft | 513 kts | 115° |
| 2026-05-06 12:21 | 37.24477 | 139.24939 | 30988 ft | 515 kts | 115° |
| 2026-05-06 12:21 | 37.23334 | 139.29176 | 31091 ft | 517 kts | 115° |
| 2026-05-06 12:22 | 37.21028 | 139.37695 | 31097 ft | 518 kts | 115° |
| 2026-05-06 12:22 | 37.18718 | 139.46216 | 31097 ft | 519 kts | 115° |
| 2026-05-06 12:23 | 37.16398 | 139.54741 | 31098 ft | 519 kts | 115° |
| 2026-05-06 12:23 | 37.14069 | 139.63264 | 31104 ft | 519 kts | 115° |
| 2026-05-06 12:24 | 37.11749 | 139.71744 | 31109 ft | 519 kts | 116° |
| 2026-05-06 12:24 | 37.09412 | 139.80247 | 30927 ft | 517 kts | 116° |
| 2026-05-06 12:25 | 37.08239 | 139.84497 | 30131 ft | 521 kts | 115° |
| 2026-05-06 12:25 | 37.07061 | 139.88745 | 29076 ft | 527 kts | 115° |
| 2026-05-06 12:25 | 37.05866 | 139.93074 | 28198 ft | 526 kts | 114° |
| 2026-05-06 12:25 | 37.04708 | 139.97281 | 27683 ft | 519 kts | 114° |
| 2026-05-06 12:26 | 37.03557 | 140.01460 | 27171 ft | 511 kts | 115° |
| 2026-05-06 12:26 | 37.02519 | 140.05212 | 26660 ft | 506 kts | 115° |
| 2026-05-06 12:26 | 37.01517 | 140.08792 | 26139 ft | 502 kts | 115° |
| 2026-05-06 12:26 | 37.00363 | 140.12904 | 25556 ft | 496 kts | 115° |
| 2026-05-06 12:27 | 36.99237 | 140.16917 | 24995 ft | 491 kts | 115° |
| 2026-05-06 12:27 | 36.98108 | 140.20941 | 24446 ft | 485 kts | 114° |
| 2026-05-06 12:27 | 36.96990 | 140.24927 | 23879 ft | 480 kts | 114° |
| 2026-05-06 12:27 | 36.95885 | 140.28853 | 23283 ft | 476 kts | 114° |
| 2026-05-06 12:28 | 36.94736 | 140.32674 | 22588 ft | 470 kts | 120° |
| 2026-05-06 12:28 | 36.92891 | 140.35960 | 21949 ft | 453 kts | 142° |
| 2026-05-06 12:28 | 36.90979 | 140.37723 | 21521 ft | 438 kts | 158° |
| 2026-05-06 12:28 | 36.88296 | 140.38820 | 20967 ft | 425 kts | 178° |
| 2026-05-06 12:29 | 36.85363 | 140.38599 | 20419 ft | 410 kts | 198° |
| 2026-05-06 12:29 | 36.82632 | 140.37651 | 19893 ft | 408 kts | 200° |
| 2026-05-06 12:29 | 36.79921 | 140.36691 | 19352 ft | 408 kts | 199° |
| 2026-05-06 12:29 | 36.77208 | 140.35826 | 18808 ft | 408 kts | 197° |
| 2026-05-06 12:30 | 36.74418 | 140.35037 | 18252 ft | 408 kts | 195° |
| 2026-05-06 12:30 | 36.71627 | 140.34435 | 17708 ft | 408 kts | 193° |
| 2026-05-06 12:30 | 36.68848 | 140.33881 | 17170 ft | 406 kts | 192° |
| 2026-05-06 12:30 | 36.66078 | 140.33333 | 16636 ft | 403 kts | 192° |
| 2026-05-06 12:31 | 36.63326 | 140.32785 | 16105 ft | 400 kts | 192° |
| 2026-05-06 12:31 | 36.60616 | 140.32243 | 15914 ft | 397 kts | 192° |
| 2026-05-06 12:31 | 36.57895 | 140.31697 | 16032 ft | 391 kts | 192° |
| 2026-05-06 12:31 | 36.55293 | 140.31180 | 16060 ft | 372 kts | 192° |
| 2026-05-06 12:32 | 36.52759 | 140.30673 | 16088 ft | 365 kts | 192° |
| 2026-05-06 12:32 | 36.50272 | 140.30171 | 16108 ft | 365 kts | 192° |
| 2026-05-06 12:32 | 36.47765 | 140.29665 | 16117 ft | 365 kts | 192° |
| 2026-05-06 12:32 | 36.45263 | 140.29161 | 16121 ft | 365 kts | 192° |
| 2026-05-06 12:33 | 36.42777 | 140.28662 | 16123 ft | 365 kts | 192° |
| 2026-05-06 12:33 | 36.40278 | 140.28163 | 16122 ft | 365 kts | 192° |
| 2026-05-06 12:33 | 36.37797 | 140.27667 | 16114 ft | 365 kts | 192° |
| 2026-05-06 12:33 | 36.35291 | 140.27165 | 15856 ft | 367 kts | 192° |
| 2026-05-06 12:34 | 36.32760 | 140.26659 | 15258 ft | 367 kts | 192° |
| 2026-05-06 12:34 | 36.30265 | 140.26160 | 14731 ft | 365 kts | 192° |
| 2026-05-06 12:34 | 36.27752 | 140.25661 | 14223 ft | 363 kts | 192° |
| 2026-05-06 12:34 | 36.25292 | 140.25171 | 13732 ft | 360 kts | 191° |
| 2026-05-06 12:35 | 36.22826 | 140.24681 | 13244 ft | 357 kts | 191° |
| 2026-05-06 12:35 | 36.20389 | 140.24196 | 12830 ft | 352 kts | 191° |
| 2026-05-06 12:35 | 36.18019 | 140.23727 | 12832 ft | 347 kts | 191° |
| 2026-05-06 12:35 | 36.15632 | 140.23254 | 12852 ft | 348 kts | 191° |
| 2026-05-06 12:36 | 36.13254 | 140.22781 | 12868 ft | 348 kts | 191° |
| 2026-05-06 12:36 | 36.10852 | 140.22305 | 12789 ft | 349 kts | 191° |
| 2026-05-06 12:36 | 36.08456 | 140.21831 | 12267 ft | 349 kts | 191° |
| 2026-05-06 12:36 | 36.06078 | 140.21358 | 11763 ft | 348 kts | 191° |
| 2026-05-06 12:37 | 36.03681 | 140.20898 | 11276 ft | 345 kts | 189° |
| 2026-05-06 12:37 | 36.01350 | 140.20612 | 11009 ft | 337 kts | 185° |
| 2026-05-06 12:37 | 35.99014 | 140.20519 | 10999 ft | 338 kts | 182° |
| 2026-05-06 12:37 | 35.96653 | 140.20476 | 10997 ft | 338 kts | 182° |
| 2026-05-06 12:38 | 35.94307 | 140.20438 | 10997 ft | 338 kts | 182° |
| 2026-05-06 12:38 | 35.91958 | 140.20401 | 10997 ft | 338 kts | 182° |
| 2026-05-06 12:38 | 35.89601 | 140.20363 | 10989 ft | 338 kts | 182° |
| 2026-05-06 12:38 | 35.87289 | 140.20325 | 10719 ft | 331 kts | 182° |
| 2026-05-06 12:39 | 35.84997 | 140.20287 | 10434 ft | 322 kts | 183° |
| 2026-05-06 12:39 | 35.82788 | 140.20038 | 10100 ft | 315 kts | 189° |
| 2026-05-06 12:39 | 35.80662 | 140.19627 | 9834 ft | 306 kts | 191° |
| 2026-05-06 12:39 | 35.78611 | 140.19214 | 9698 ft | 294 kts | 191° |
| 2026-05-06 12:40 | 35.76623 | 140.18823 | 9569 ft | 282 kts | 190° |
| 2026-05-06 12:40 | 35.74744 | 140.18466 | 9445 ft | 274 kts | 190° |
| 2026-05-06 12:40 | 35.72856 | 140.18114 | 9320 ft | 274 kts | 190° |
| 2026-05-06 12:40 | 35.70988 | 140.17770 | 9196 ft | 273 kts | 190° |
| 2026-05-06 12:41 | 35.69103 | 140.17427 | 9070 ft | 273 kts | 189° |
| 2026-05-06 12:41 | 35.67223 | 140.17087 | 8945 ft | 272 kts | 189° |
| 2026-05-06 12:41 | 35.65362 | 140.16753 | 8820 ft | 271 kts | 189° |
| 2026-05-06 12:41 | 35.63502 | 140.16420 | 8566 ft | 268 kts | 189° |
| 2026-05-06 12:42 | 35.61674 | 140.16093 | 8144 ft | 268 kts | 189° |
| 2026-05-06 12:42 | 35.59829 | 140.15762 | 7756 ft | 267 kts | 189° |
| 2026-05-06 12:42 | 35.58006 | 140.15437 | 7399 ft | 265 kts | 189° |
| 2026-05-06 12:42 | 35.56193 | 140.15114 | 7028 ft | 263 kts | 189° |
| 2026-05-06 12:43 | 35.54406 | 140.14795 | 6656 ft | 261 kts | 189° |
| 2026-05-06 12:43 | 35.52607 | 140.14475 | 6282 ft | 260 kts | 189° |
| 2026-05-06 12:43 | 35.50836 | 140.14159 | 5915 ft | 258 kts | 189° |
| 2026-05-06 12:43 | 35.49072 | 140.13843 | 5548 ft | 257 kts | 189° |
| 2026-05-06 12:44 | 35.47321 | 140.13530 | 5190 ft | 255 kts | 189° |
| 2026-05-06 12:44 | 35.45550 | 140.13214 | 4825 ft | 253 kts | 189° |
| 2026-05-06 12:44 | 35.43813 | 140.12903 | 4467 ft | 252 kts | 189° |
| 2026-05-06 12:44 | 35.42089 | 140.12601 | 4115 ft | 250 kts | 189° |
| 2026-05-06 12:45 | 35.40376 | 140.12300 | 4000 ft | 249 kts | 188° |
| 2026-05-06 12:45 | 35.38681 | 140.11997 | 3998 ft | 250 kts | 188° |
| 2026-05-06 12:45 | 35.35242 | 140.11388 | 3996 ft | 250 kts | 188° |
| 2026-05-06 12:46 | 35.33529 | 140.11089 | 3996 ft | 250 kts | 189° |
| 2026-05-06 12:46 | 35.31800 | 140.10782 | 3996 ft | 250 kts | 188° |
| 2026-05-06 12:46 | 35.30135 | 140.10284 | 3984 ft | 250 kts | 206° |
| 2026-05-06 12:46 | 35.28810 | 140.08900 | 3991 ft | 253 kts | 233° |
| 2026-05-06 12:47 | 35.27898 | 140.07050 | 4000 ft | 254 kts | 238° |
| 2026-05-06 12:47 | 35.27075 | 140.05130 | 3993 ft | 256 kts | 247° |
| 2026-05-06 12:47 | 35.26857 | 140.02969 | 3988 ft | 263 kts | 276° |
| 2026-05-06 12:47 | 35.27501 | 140.00882 | 4001 ft | 268 kts | 296° |
| 2026-05-06 12:48 | 35.28516 | 139.98967 | 3995 ft | 271 kts | 308° |
| 2026-05-06 12:48 | 35.29922 | 139.97423 | 3995 ft | 274 kts | 324° |
| 2026-05-06 12:48 | 35.31520 | 139.96269 | 3993 ft | 262 kts | 330° |
| 2026-05-06 12:48 | 35.33050 | 139.95287 | 3989 ft | 247 kts | 330° |
| 2026-05-06 12:49 | 35.34476 | 139.94356 | 3985 ft | 232 kts | 329° |
| 2026-05-06 12:49 | 35.35823 | 139.93439 | 3986 ft | 228 kts | 328° |
| 2026-05-06 12:49 | 35.37205 | 139.92467 | 3840 ft | 227 kts | 327° |
| 2026-05-06 12:49 | 35.38524 | 139.91525 | 3578 ft | 226 kts | 327° |
| 2026-05-06 12:50 | 35.39838 | 139.90584 | 3360 ft | 217 kts | 327° |
| 2026-05-06 12:50 | 35.41097 | 139.89682 | 3047 ft | 207 kts | 327° |
| 2026-05-06 12:50 | 35.42321 | 139.88806 | 2736 ft | 200 kts | 327° |
| 2026-05-06 12:50 | 35.43505 | 139.87961 | 2453 ft | 196 kts | 328° |
| 2026-05-06 12:51 | 35.44660 | 139.87137 | 2187 ft | 190 kts | 328° |
| 2026-05-06 12:51 | 35.45781 | 139.86339 | 1966 ft | 181 kts | 328° |
| 2026-05-06 12:51 | 35.46831 | 139.85591 | 1721 ft | 174 kts | 328° |
| 2026-05-06 12:51 | 35.47871 | 139.84851 | 1495 ft | 168 kts | 328° |
| 2026-05-06 12:52 | 35.48830 | 139.84166 | 1271 ft | 152 kts | 330° |
| 2026-05-06 12:52 | 35.49707 | 139.83542 | 1069 ft | 146 kts | 330° |
| 2026-05-06 12:52 | 35.50539 | 139.82951 | 901 ft | 146 kts | 330° |
| 2026-05-06 12:52 | 35.51388 | 139.82349 | 719 ft | 145 kts | 330° |
| 2026-05-06 12:53 | 35.52256 | 139.81732 | 525 ft | 145 kts | 330° |
| 2026-05-06 12:53 | 35.53135 | 139.81111 | 334 ft | 144 kts | 330° |
| 2026-05-06 12:53 | 35.54000 | 139.80498 | 171 ft | 149 kts | 330° |
| 2026-05-06 12:53 | 35.54914 | 139.79846 | 723 ft | 160 kts | 330° |
| 2026-05-06 12:54 | 35.55839 | 139.79195 | 1477 ft | 162 kts | 331° |
| 2026-05-06 12:54 | 35.56794 | 139.78540 | 2188 ft | 167 kts | 329° |
| 2026-05-06 12:54 | 35.57825 | 139.77838 | 2636 ft | 176 kts | 329° |
| 2026-05-06 12:54 | 35.58941 | 139.77188 | 2897 ft | 194 kts | 344° |
| 2026-05-06 12:55 | 35.60349 | 139.77133 | 3227 ft | 213 kts | 6° |
| 2026-05-06 12:55 | 35.61867 | 139.77435 | 3611 ft | 233 kts | 11° |
| 2026-05-06 12:55 | 35.63502 | 139.77808 | 3922 ft | 247 kts | 10° |
| 2026-05-06 12:55 | 35.65171 | 139.78152 | 3993 ft | 247 kts | 8° |
| 2026-05-06 12:56 | 35.66872 | 139.78464 | 3995 ft | 247 kts | 7° |
| 2026-05-06 12:56 | 35.68570 | 139.78749 | 3995 ft | 247 kts | 7° |
| 2026-05-06 12:56 | 35.70211 | 139.79011 | 3996 ft | 247 kts | 7° |
| 2026-05-06 12:56 | 35.71697 | 139.79244 | 3996 ft | 247 kts | 7° |
| 2026-05-06 12:57 | 35.73386 | 139.79536 | 3993 ft | 247 kts | 14° |
| 2026-05-06 12:57 | 35.74891 | 139.80492 | 3986 ft | 245 kts | 46° |
| 2026-05-06 12:57 | 35.75787 | 139.82248 | 3992 ft | 239 kts | 78° |
| 2026-05-06 12:57 | 35.76030 | 139.84265 | 4006 ft | 246 kts | 90° |
| 2026-05-06 12:58 | 35.76094 | 139.86446 | 4003 ft | 261 kts | 92° |
| 2026-05-06 12:58 | 35.76124 | 139.88698 | 4000 ft | 263 kts | 92° |
| 2026-05-06 12:58 | 35.76148 | 139.90967 | 3998 ft | 264 kts | 92° |
| 2026-05-06 12:58 | 35.76169 | 139.93233 | 3996 ft | 263 kts | 94° |
| 2026-05-06 12:59 | 35.75836 | 139.95381 | 3985 ft | 256 kts | 120° |
| 2026-05-06 12:59 | 35.74784 | 139.97110 | 3999 ft | 251 kts | 138° |
| 2026-05-06 12:59 | 35.73505 | 139.98563 | 3999 ft | 250 kts | 142° |
| 2026-05-06 12:59 | 35.72186 | 139.99962 | 3997 ft | 250 kts | 142° |
| 2026-05-06 13:00 | 35.70855 | 140.01355 | 3997 ft | 250 kts | 142° |
| 2026-05-06 13:00 | 35.69530 | 140.02737 | 3996 ft | 250 kts | 143° |
| 2026-05-06 13:00 | 35.68216 | 140.04108 | 3996 ft | 250 kts | 143° |
| 2026-05-06 13:00 | 35.66880 | 140.05501 | 3996 ft | 250 kts | 143° |
| 2026-05-06 13:01 | 35.65552 | 140.06885 | 3996 ft | 250 kts | 142° |
| 2026-05-06 13:01 | 35.64231 | 140.08261 | 3996 ft | 250 kts | 143° |
| 2026-05-06 13:01 | 35.62816 | 140.09465 | 3980 ft | 245 kts | 162° |
| 2026-05-06 13:01 | 35.61192 | 140.09708 | 3991 ft | 225 kts | 182° |
| 2026-05-06 13:02 | 35.59674 | 140.09665 | 3993 ft | 216 kts | 182° |
| 2026-05-06 13:02 | 35.58163 | 140.09631 | 3995 ft | 216 kts | 181° |
| 2026-05-06 13:02 | 35.56676 | 140.09624 | 3996 ft | 216 kts | 181° |
| 2026-05-06 13:02 | 35.55170 | 140.09636 | 3996 ft | 216 kts | 180° |
| 2026-05-06 13:03 | 35.53654 | 140.09663 | 3997 ft | 216 kts | 180° |
| 2026-05-06 13:03 | 35.52156 | 140.09698 | 3996 ft | 216 kts | 180° |
| 2026-05-06 13:03 | 35.50648 | 140.09738 | 3996 ft | 216 kts | 180° |
| 2026-05-06 13:03 | 35.49144 | 140.09781 | 3996 ft | 216 kts | 180° |
| 2026-05-06 13:04 | 35.47640 | 140.09824 | 3996 ft | 216 kts | 180° |
| 2026-05-06 13:04 | 35.46140 | 140.09869 | 3997 ft | 216 kts | 180° |
| 2026-05-06 13:04 | 35.44638 | 140.09914 | 3997 ft | 216 kts | 180° |
| 2026-05-06 13:04 | 35.43144 | 140.09959 | 4003 ft | 216 kts | 180° |
| 2026-05-06 13:05 | 35.41639 | 140.10005 | 4009 ft | 217 kts | 180° |
| 2026-05-06 13:05 | 35.40115 | 140.10053 | 4014 ft | 217 kts | 180° |
| 2026-05-06 13:05 | 35.38609 | 140.10098 | 4019 ft | 217 kts | 180° |
| 2026-05-06 13:05 | 35.37104 | 140.10144 | 4020 ft | 217 kts | 180° |
| 2026-05-06 13:06 | 35.35590 | 140.10190 | 4022 ft | 217 kts | 180° |
| 2026-05-06 13:06 | 35.34087 | 140.10236 | 4023 ft | 217 kts | 180° |
| 2026-05-06 13:06 | 35.32566 | 140.10281 | 4024 ft | 217 kts | 180° |
| 2026-05-06 13:06 | 35.31067 | 140.10286 | 4020 ft | 217 kts | 188° |
| 2026-05-06 13:07 | 35.29656 | 140.09686 | 4020 ft | 217 kts | 212° |
| 2026-05-06 13:07 | 35.28584 | 140.08383 | 4024 ft | 220 kts | 234° |
| 2026-05-06 13:07 | 35.27797 | 140.06779 | 4026 ft | 221 kts | 238° |
| 2026-05-06 13:07 | 35.27077 | 140.05115 | 4021 ft | 222 kts | 247° |
| 2026-05-06 13:08 | 35.26845 | 140.03236 | 4020 ft | 228 kts | 272° |
| 2026-05-06 13:08 | 35.27313 | 140.01363 | 4026 ft | 234 kts | 294° |
| 2026-05-06 13:08 | 35.28222 | 139.99701 | 4027 ft | 237 kts | 305° |
| 2026-05-06 13:08 | 35.29343 | 139.98196 | 4025 ft | 239 kts | 316° |
| 2026-05-06 13:09 | 35.30669 | 139.96982 | 4025 ft | 241 kts | 325° |
| 2026-05-06 13:09 | 35.32130 | 139.95941 | 4025 ft | 241 kts | 329° |
| 2026-05-06 13:09 | 35.33584 | 139.94968 | 4025 ft | 241 kts | 329° |
| 2026-05-06 13:09 | 35.35059 | 139.93965 | 4025 ft | 241 kts | 328° |
| 2026-05-06 13:10 | 35.36505 | 139.92956 | 3950 ft | 242 kts | 328° |
| 2026-05-06 13:10 | 35.37967 | 139.91919 | 3685 ft | 240 kts | 327° |
| 2026-05-06 13:10 | 35.39354 | 139.90929 | 3472 ft | 223 kts | 327° |
| 2026-05-06 13:10 | 35.40649 | 139.90002 | 3158 ft | 211 kts | 327° |
| 2026-05-06 13:11 | 35.41890 | 139.89114 | 2841 ft | 200 kts | 327° |
| 2026-05-06 13:11 | 35.43076 | 139.88266 | 2553 ft | 199 kts | 327° |
| 2026-05-06 13:11 | 35.44258 | 139.87422 | 2279 ft | 194 kts | 328° |
| 2026-05-06 13:11 | 35.45414 | 139.86598 | 2018 ft | 189 kts | 328° |
| 2026-05-06 13:12 | 35.46527 | 139.85806 | 1799 ft | 180 kts | 328° |
| 2026-05-06 13:12 | 35.47583 | 139.85056 | 1567 ft | 173 kts | 328° |
| 2026-05-06 13:12 | 35.48599 | 139.84331 | 1346 ft | 161 kts | 329° |
| 2026-05-06 13:12 | 35.49516 | 139.83678 | 1111 ft | 147 kts | 330° |
| 2026-05-06 13:13 | 35.50398 | 139.83050 | 924 ft | 145 kts | 330° |
| 2026-05-06 13:13 | 35.51268 | 139.82433 | 743 ft | 145 kts | 330° |
| 2026-05-06 13:13 | 35.52131 | 139.81821 | 553 ft | 144 kts | 330° |
| 2026-05-06 13:13 | 35.52993 | 139.81209 | 361 ft | 144 kts | 330° |
| 2026-05-06 13:14 | 35.53858 | 139.80598 | 167 ft | 143 kts | 330° |
| 2026-05-06 13:14 | 35.54714 | 139.79987 | 51 ft | 136 kts | 330° |
| 2026-05-06 13:14 | 35.55370 | 139.79523 | 44 ft | 70 kts | 330° |
| 2026-05-06 13:14 | 35.55703 | 139.79256 | 44 ft | 39 kts | 314° |
| 2026-05-06 13:15 | 35.55781 | 139.79128 | 44 ft | 10 kts | 301° |
| 2026-05-06 13:15 | 35.55792 | 139.79057 | 44 ft | 8 kts | 251° |
| 2026-05-06 13:15 | 35.55745 | 139.79015 | 44 ft | 7 kts | 185° |
| 2026-05-06 13:15 | 35.55694 | 139.79036 | 44 ft | 8 kts | 151° |
| 2026-05-06 13:16 | 35.55642 | 139.79073 | 44 ft | 8 kts | 150° |
| 2026-05-06 13:16 | 35.55588 | 139.79112 | 44 ft | 9 kts | 150° |
| 2026-05-06 13:16 | 35.55528 | 139.79146 | 44 ft | 9 kts | 180° |
| 2026-05-06 13:16 | 35.55476 | 139.79097 | 44 ft | 10 kts | 238° |
| 2026-05-06 13:17 | 35.55438 | 139.79018 | 44 ft | 11 kts | 240° |
| 2026-05-06 13:17 | 35.55397 | 139.78941 | 44 ft | 10 kts | 218° |
| 2026-05-06 13:17 | 35.55335 | 139.78940 | 44 ft | 4 kts | 149° |
| 2026-05-06 13:17 | 35.55327 | 139.78970 | 44 ft | 4 kts | 73° |
| 2026-05-06 13:18 | 35.55343 | 139.79009 | 44 ft | 5 kts | 61° |
| 2026-05-06 13:18 | 35.55356 | 139.79036 | 44 ft | 0 kts | 61° |